sensor_id;sensor_type;location;lat;lon;timestamp;pressure;altitude;pressure_sealevel;temperature;humidity
53671;BME280;39571;48.612;8.088;2023-01-10T10:27:28;100691.03;;;6.04;100.00
53671;BME280;39571;48.612;8.088;2023-01-10T10:35:45;100692.44;;;6.32;100.00
53671;BME280;39571;48.612;8.088;2023-01-10T10:48:33;100694.06;;;6.25;100.00
53671;BME280;39571;48.612;8.088;2023-01-10T10:54:34;100685.75;;;6.44;100.00
53671;BME280;39571;48.612;8.088;2023-01-10T10:57:00;100691.22;;;6.58;100.00
53671;BME280;39571;48.612;8.088;2023-01-10T10:59:25;100687.19;;;6.77;100.00
53671;BME280;39571;48.612;8.088;2023-01-10T11:01:50;100680.47;;;6.89;100.00
53671;BME280;39571;48.612;8.088;2023-01-10T11:04:20;100673.81;;;7.08;100.00
53671;BME280;39571;48.612;8.088;2023-01-10T11:06:46;100671.63;;;7.37;100.00
53671;BME280;39571;48.612;8.088;2023-01-10T11:09:16;100667.78;;;7.74;100.00
53671;BME280;39571;48.612;8.088;2023-01-10T11:11:49;100664.72;;;8.08;100.00
53671;BME280;39571;48.612;8.088;2023-01-10T11:14:40;100671.13;;;8.36;100.00
53671;BME280;39571;48.612;8.088;2023-01-10T11:17:18;100666.06;;;8.48;100.00
53671;BME280;39571;48.612;8.088;2023-01-10T11:20:02;100673.91;;;8.52;100.00
53671;BME280;39571;48.612;8.088;2023-01-10T11:22:32;100655.66;;;8.55;100.00
53671;BME280;39571;48.612;8.088;2023-01-10T11:25:01;100654.81;;;8.56;100.00
53671;BME280;39571;48.612;8.088;2023-01-10T11:27:29;100651.38;;;8.60;100.00
53671;BME280;39571;48.612;8.088;2023-01-10T11:30:01;100643.63;;;8.71;100.00
53671;BME280;39571;48.612;8.088;2023-01-10T11:32:36;100653.28;;;8.83;100.00
53671;BME280;39571;48.612;8.088;2023-01-10T11:35:06;100659.38;;;8.83;100.00
53671;BME280;39571;48.612;8.088;2023-01-10T11:37:34;100655.03;;;8.81;100.00
53671;BME280;39571;48.612;8.088;2023-01-10T11:40:21;100660.19;;;8.75;100.00
53671;BME280;39571;48.612;8.088;2023-01-10T11:42:49;100666.28;;;8.74;100.00
53671;BME280;39571;48.612;8.088;2023-01-10T11:47:46;100664.91;;;8.23;100.00
53671;BME280;39571;48.612;8.088;2023-01-10T11:50:40;100668.03;;;7.95;100.00
53671;BME280;39571;48.612;8.088;2023-01-10T11:53:40;100660.13;;;7.87;100.00
53671;BME280;39571;48.612;8.088;2023-01-10T11:56:10;100643.88;;;8.11;100.00
53671;BME280;39571;48.612;8.088;2023-01-10T11:58:37;100643.97;;;8.19;100.00
53671;BME280;39571;48.612;8.088;2023-01-10T12:01:04;100650.81;;;8.06;100.00
53671;BME280;39571;48.612;8.088;2023-01-10T12:03:32;100641.91;;;7.89;100.00
53671;BME280;39571;48.612;8.088;2023-01-10T12:06:13;100639.09;;;7.71;100.00
53671;BME280;39571;48.612;8.088;2023-01-10T12:08:40;100623.34;;;7.63;100.00
53671;BME280;39571;48.612;8.088;2023-01-10T12:13:44;100621.03;;;7.86;100.00
53671;BME280;39571;48.612;8.088;2023-01-10T12:18:43;100607.84;;;7.74;100.00
53671;BME280;39571;48.612;8.088;2023-01-10T12:21:11;100607.72;;;7.61;100.00
53671;BME280;39571;48.612;8.088;2023-01-10T12:23:39;100597.19;;;7.52;100.00
53671;BME280;39571;48.612;8.088;2023-01-10T12:26:08;100602.38;;;7.52;100.00
53671;BME280;39571;48.612;8.088;2023-01-10T12:28:38;100591.22;;;7.62;100.00
53671;BME280;39571;48.612;8.088;2023-01-10T12:31:11;100581.06;;;7.84;100.00
53671;BME280;39571;48.612;8.088;2023-01-10T12:33:45;100589.72;;;7.83;100.00
53671;BME280;39571;48.612;8.088;2023-01-10T12:36:39;100585.38;;;7.82;100.00
53671;BME280;39571;48.612;8.088;2023-01-10T12:39:13;100586.22;;;7.81;100.00
53671;BME280;39571;48.612;8.088;2023-01-10T12:44:44;100585.13;;;7.60;100.00
53671;BME280;39571;48.612;8.088;2023-01-10T12:47:33;100579.03;;;7.60;100.00
53671;BME280;39571;48.612;8.088;2023-01-10T12:50:19;100570.53;;;7.75;100.00
53671;BME280;39571;48.612;8.088;2023-01-10T13:02:58;100556.56;;;7.70;100.00
53671;BME280;39571;48.612;8.088;2023-01-10T13:05:28;100551.50;;;7.82;100.00
53671;BME280;39571;48.612;8.088;2023-01-10T13:07:58;100551.59;;;7.91;100.00
